Time;durP1;ratioP1;P1;durP2;ratioP2;P2;SDS_P1;SDS_P2;PMS_P1;PMS_P2;Temp;Humidity;BMP_temperature;BMP_pressure;BME280_temperature;BME280_humidity;BME280_pressure;Samples;Min_cycle;Max_cycle;Signal;HPM_P1;HPM_P2
2022/07/19 00:01:23;;;;;;;;;9.25;6.25;;;;;28.74;27.40;101090.19;4901228;29;45231;-58
2022/07/19 00:03:48;;;;;;;;;6.25;4.75;;;;;28.74;27.35;101084.88;4900456;29;45330;-69
2022/07/19 00:06:13;;;;;;;;;6.00;5.00;;;;;28.75;27.67;101083.88;4900700;29;45322;-65
2022/07/19 00:08:39;;;;;;;;;6.75;5.75;;;;;28.74;27.80;101082.19;4900574;29;45241;-68
2022/07/19 00:11:04;;;;;;;;;6.50;6.50;;;;;28.75;27.77;101080.34;4900821;29;45316;-67
2022/07/19 00:13:29;;;;;;;;;7.25;6.25;;;;;28.75;28.01;101080.34;4900097;29;46080;-66
2022/07/19 00:15:55;;;;;;;;;7.50;7.00;;;;;28.75;27.89;101080.34;4900044;29;45348;-72
2022/07/19 00:18:20;;;;;;;;;4.75;4.75;;;;;28.74;27.35;101078.66;4900566;29;45336;-63
2022/07/19 00:20:45;;;;;;;;;7.50;6.75;;;;;28.74;27.54;101073.34;4900583;29;45207;-64
2022/07/19 00:23:11;;;;;;;;;6.00;5.75;;;;;28.73;27.51;101076.97;4900428;29;45395;-65
2022/07/19 00:25:36;;;;;;;;;5.75;5.75;;;;;28.73;27.53;101080.50;4900044;28;46040;-57
2022/07/19 00:28:01;;;;;;;;;7.50;6.00;;;;;28.72;27.64;101076.16;4900659;28;45791;-60
2022/07/19 00:30:27;;;;;;;;;6.75;6.00;;;;;28.72;27.90;101072.66;4900375;28;45333;-51
2022/07/19 00:32:52;;;;;;;;;7.00;5.75;;;;;28.71;27.71;101074.41;4900450;29;46227;-55
2022/07/19 00:35:18;;;;;;;;;5.50;5.50;;;;;28.71;27.75;101071.75;4900336;29;45385;-58
2022/07/19 00:37:43;;;;;;;;;5.75;5.75;;;;;28.70;28.07;101076.25;4899982;29;45336;-58
2022/07/19 00:40:09;;;;;;;;;7.00;6.00;;;;;28.70;27.48;101070.94;4900596;29;45451;-57
2022/07/19 00:42:34;;;;;;;;;7.25;6.25;;;;;28.69;27.42;101069.22;4899904;29;45395;-61
2022/07/19 00:45:00;;;;;;;;;7.25;5.25;;;;;28.69;27.51;101066.56;4900070;29;45404;-51
2022/07/19 00:47:25;;;;;;;;;7.00;6.50;;;;;28.68;28.03;101062.19;4899419;29;45338;-50
2022/07/19 00:49:50;;;;;;;;;8.75;6.00;;;;;28.69;28.05;101077.22;4900341;29;45498;-57
2022/07/19 00:52:19;;;;;;;;;4.75;4.75;;;;;28.69;27.72;101061.22;4899954;29;46360;-63
2022/07/19 00:54:46;;;;;;;;;8.00;5.25;;;;;28.69;27.51;101063.03;4899816;29;45224;-71
2022/07/19 00:57:14;;;;;;;;;6.50;5.25;;;;;28.70;27.83;101064.72;4900010;29;45893;-67
2022/07/19 00:59:40;;;;;;;;;7.25;7.25;;;;;28.68;27.81;101064.00;4899954;29;45490;-66
2022/07/19 01:02:06;;;;;;;;;7.50;6.00;;;;;28.69;28.02;101060.38;4899830;28;46214;-61
2022/07/19 01:04:33;;;;;;;;;5.50;5.50;;;;;28.68;28.02;101056.88;4898418;29;45265;-66
2022/07/19 01:06:58;;;;;;;;;7.00;4.75;;;;;28.67;28.01;101056.97;4899989;29;45297;-61
2022/07/19 01:09:24;;;;;;;;;5.00;5.00;;;;;28.67;27.94;101055.19;4900345;29;45214;-63
2022/07/19 01:11:51;;;;;;;;;8.50;7.00;;;;;28.67;27.96;101063.19;4899418;29;46365;-66
2022/07/19 01:14:16;;;;;;;;;8.50;5.00;;;;;28.67;28.09;101055.19;4899692;29;45422;-57
2022/07/19 01:16:46;;;;;;;;;5.50;5.50;;;;;28.66;27.87;101050.81;4899677;29;45893;-60
2022/07/19 01:19:13;;;;;;;;;8.50;6.00;;;;;28.67;28.02;101048.97;4900055;29;45494;-55
2022/07/19 01:21:38;;;;;;;;;8.00;6.25;;;;;28.66;28.15;101056.16;4898897;29;46063;-58
2022/07/19 01:24:04;;;;;;;;;7.00;6.50;;;;;28.66;27.72;101050.81;4898437;29;45427;-62
2022/07/19 01:26:29;;;;;;;;;6.25;6.00;;;;;28.67;27.82;101051.66;4899094;29;45262;-62
2022/07/19 01:28:55;;;;;;;;;4.50;4.00;;;;;28.67;28.05;101049.84;4900148;29;45217;-59
2022/07/19 01:31:20;;;;;;;;;7.00;4.25;;;;;28.66;28.42;101040.16;4899456;29;45890;-47
2022/07/19 01:33:46;;;;;;;;;6.75;5.25;;;;;28.67;28.00;101046.31;4899281;29;45209;-48
2022/07/19 01:36:11;;;;;;;;;5.75;5.50;;;;;28.66;28.23;101045.50;4899212;29;46172;-64
2022/07/19 01:38:37;;;;;;;;;7.00;5.00;;;;;28.66;28.09;101044.66;4899578;29;45522;-63
2022/07/19 01:41:04;;;;;;;;;8.75;6.00;;;;;28.66;27.84;101045.50;4882423;29;46071;-63
2022/07/19 01:43:29;;;;;;;;;6.25;4.75;;;;;28.67;28.45;101043.66;4899096;28;45877;-59
2022/07/19 01:45:55;;;;;;;;;7.75;6.25;;;;;28.66;28.30;101047.31;4899809;28;45408;-60
2022/07/19 01:48:21;;;;;;;;;7.75;7.75;;;;;28.65;27.94;101043.78;4899626;29;45346;-57
2022/07/19 01:50:46;;;;;;;;;6.75;5.75;;;;;28.66;28.30;101042.00;4897707;29;45940;-61
2022/07/19 01:53:11;;;;;;;;;6.00;6.00;;;;;28.66;28.09;101040.16;4899299;29;45551;-63
2022/07/19 01:55:37;;;;;;;;;6.50;5.25;;;;;28.64;28.08;101036.78;4899029;29;45228;-67
2022/07/19 01:58:02;;;;;;;;;7.75;6.75;;;;;28.65;28.38;101038.47;4899333;29;45494;-67
2022/07/19 02:00:28;;;;;;;;;6.75;6.25;;;;;28.65;28.45;101037.63;4898861;29;45937;-67
2022/07/19 02:02:53;;;;;;;;;6.00;6.00;;;;;28.65;28.68;101038.47;4899379;29;45463;-68
2022/07/19 02:05:19;;;;;;;;;8.00;6.00;;;;;28.65;28.58;101041.13;4899234;29;45792;-68
2022/07/19 02:07:44;;;;;;;;;5.75;5.00;;;;;28.65;28.33;101037.63;4899082;29;45598;-69
2022/07/19 02:10:09;;;;;;;;;5.75;5.00;;;;;28.65;28.40;101032.28;4899004;29;46117;-69
2022/07/19 02:12:35;;;;;;;;;5.00;5.00;;;;;28.66;28.30;101039.31;4898657;29;45292;-68
2022/07/19 02:15:00;;;;;;;;;8.75;7.50;;;;;28.66;28.13;101040.16;4899243;29;45289;-67
2022/07/19 02:17:26;;;;;;;;;6.75;5.00;;;;;28.65;27.83;101027.78;4899664;29;45624;-66
2022/07/19 02:19:51;;;;;;;;;3.50;3.00;;;;;28.65;28.16;101027.78;4899051;29;45918;-67
2022/07/19 02:22:16;;;;;;;;;9.00;7.00;;;;;28.66;28.30;101031.31;4898920;29;45576;-56
2022/07/19 02:24:42;;;;;;;;;3.25;3.25;;;;;28.66;28.47;101026.81;4898665;29;45483;-49
2022/07/19 02:27:11;;;;;;;;;6.75;4.75;;;;;28.66;27.68;101023.31;4899035;29;45392;-64
2022/07/19 02:29:37;;;;;;;;;8.00;6.50;;;;;28.65;28.75;101018.97;4898641;29;46316;-52
2022/07/19 02:32:03;;;;;;;;;6.75;6.75;;;;;28.65;28.16;101018.97;4898748;29;45221;-57
2022/07/19 02:34:28;;;;;;;;;6.50;6.50;;;;;28.65;28.27;101018.97;4898728;29;45275;-59
2022/07/19 02:36:54;;;;;;;;;6.00;6.00;;;;;28.65;28.18;101014.47;4899242;29;45470;-51
2022/07/19 02:39:19;;;;;;;;;7.00;6.00;;;;;28.65;28.34;101021.63;4901727;29;46460;-58
2022/07/19 02:41:45;;;;;;;;;6.75;6.75;;;;;28.63;27.92;101016.41;4901550;29;45294;-59
2022/07/19 02:44:10;;;;;;;;;2.25;2.00;;;;;28.63;28.25;101008.41;4902191;28;45304;-56
2022/07/19 02:46:35;;;;;;;;;6.50;6.50;;;;;28.62;28.26;101012.06;4901899;29;45216;-68
2022/07/19 02:49:01;;;;;;;;;5.25;5.00;;;;;28.62;27.93;101014.72;4901757;29;48940;-66
2022/07/19 02:51:26;;;;;;;;;6.00;6.00;;;;;28.62;28.37;101009.38;4901909;29;46122;-49
2022/07/19 02:53:52;;;;;;;;;7.00;5.75;;;;;28.63;28.26;101012.91;4902282;29;45387;-68
2022/07/19 02:56:17;;;;;;;;;7.75;7.00;;;;;28.62;28.10;101004.06;4901915;29;45582;-64
2022/07/19 02:58:42;;;;;;;;;9.50;6.50;;;;;28.62;28.13;101006.72;4901283;28;49049;-65
2022/07/19 03:01:08;;;;;;;;;9.00;7.00;;;;;28.62;28.19;101004.06;4901670;29;45507;-65
2022/07/19 03:03:50;;;;;;;;;6.00;4.25;;;;;28.62;27.85;101000.56;4901579;29;45349;-65
2022/07/19 03:06:18;;;;;;;;;7.50;6.50;;;;;28.62;28.48;101001.38;4901835;28;45575;-64
2022/07/19 03:08:44;;;;;;;;;7.75;6.75;;;;;28.63;27.86;100996.91;4901270;29;45416;-68
2022/07/19 03:11:10;;;;;;;;;8.00;8.00;;;;;28.62;28.14;100990.72;4901566;29;45411;-63
2022/07/19 03:13:35;;;;;;;;;7.00;6.75;;;;;28.62;28.45;100998.72;4901358;29;45391;-68
2022/07/19 03:16:01;;;;;;;;;6.50;5.75;;;;;28.62;28.10;100995.22;4901717;29;45401;-68
2022/07/19 03:18:26;;;;;;;;;7.00;7.00;;;;;28.61;27.95;100999.69;4901570;29;45243;-57
2022/07/19 03:20:51;;;;;;;;;8.75;7.00;;;;;28.59;28.37;100993.69;4901626;29;45296;-68
2022/07/19 03:23:17;;;;;;;;;5.50;5.50;;;;;28.60;28.13;100998.03;4901338;29;45185;-65
2022/07/19 03:25:42;;;;;;;;;8.75;7.00;;;;;28.60;27.99;100997.19;4901031;29;45963;-57
2022/07/19 03:28:07;;;;;;;;;9.25;6.75;;;;;28.61;28.40;101006.88;4901259;29;46179;-54
2022/07/19 03:30:33;;;;;;;;;7.50;7.00;;;;;28.59;28.06;101004.34;4901031;29;45226;-57
2022/07/19 03:32:58;;;;;;;;;8.00;6.50;;;;;28.59;28.22;101000.81;4901384;29;45290;-62
2022/07/19 03:35:25;;;;;;;;;7.50;6.75;;;;;28.59;28.38;101007.00;4901805;29;45238;-54
2022/07/19 03:37:51;;;;;;;;;6.00;6.00;;;;;28.59;27.84;101001.69;4900817;29;45293;-58
2022/07/19 03:40:16;;;;;;;;;6.25;6.00;;;;;28.58;27.93;101007.13;4900903;29;48463;-60
2022/07/19 03:42:42;;;;;;;;;7.00;6.25;;;;;28.59;28.06;101006.16;4900589;29;45992;-56
2022/07/19 03:45:08;;;;;;;;;9.75;8.00;;;;;28.59;28.09;100998.16;4901367;29;45264;-58
2022/07/19 03:47:33;;;;;;;;;9.50;7.50;;;;;28.57;28.05;100998.31;4900686;29;46724;-60
2022/07/19 03:49:58;;;;;;;;;9.50;8.25;;;;;28.57;28.10;100995.63;4900935;29;45381;-57
2022/07/19 03:52:24;;;;;;;;;9.25;8.25;;;;;28.56;27.98;100999.28;4901409;29;45509;-57
2022/07/19 03:54:50;;;;;;;;;10.00;9.00;;;;;28.55;28.15;100998.41;4900961;28;45317;-57
2022/07/19 03:57:15;;;;;;;;;8.50;8.25;;;;;28.55;28.18;100998.41;4900769;29;46378;-60
2022/07/19 03:59:41;;;;;;;;;7.50;6.50;;;;;28.56;28.20;100999.28;4900635;29;45329;-56
2022/07/19 04:02:06;;;;;;;;;7.25;7.25;;;;;28.55;27.95;100992.25;4900913;29;45538;-56
2022/07/19 04:04:31;;;;;;;;;8.75;8.50;;;;;28.54;27.89;100996.75;4900993;29;45206;-53
2022/07/19 04:06:57;;;;;;;;;8.25;7.75;;;;;28.55;28.52;101000.25;4900721;29;45358;-60
2022/07/19 04:09:23;;;;;;;;;10.50;7.00;;;;;28.53;28.34;100996.88;4900885;29;45273;-64
2022/07/19 04:11:48;;;;;;;;;11.75;9.00;;;;;28.54;28.15;101003.88;4900491;29;45351;-64
2022/07/19 04:14:14;;;;;;;;;8.25;8.00;;;;;28.50;27.89;100992.66;4900852;29;45156;-57
2022/07/19 04:16:39;;;;;;;;;9.25;6.50;;;;;28.52;28.14;100995.19;4898977;28;46431;-57
2022/07/19 04:19:04;;;;;;;;;9.00;8.00;;;;;28.50;28.50;100995.31;4900574;29;45254;-57
2022/07/19 04:21:29;;;;;;;;;9.25;9.25;;;;;28.50;28.01;101002.47;4900403;29;45302;-59
2022/07/19 04:23:55;;;;;;;;;12.00;7.00;;;;;28.49;28.36;100992.81;4901048;29;45251;-59
2022/07/19 04:26:20;;;;;;;;;8.00;8.00;;;;;28.49;28.36;100995.47;4900039;28;46102;-68
2022/07/19 04:28:46;;;;;;;;;9.00;8.00;;;;;28.48;28.33;100988.44;4900280;29;45380;-64
2022/07/19 04:31:11;;;;;;;;;10.75;9.50;;;;;28.48;28.53;100994.59;4900493;29;45694;-67
2022/07/19 04:33:36;;;;;;;;;8.50;8.50;;;;;28.47;28.62;100997.41;4900436;29;45778;-68
2022/07/19 04:36:02;;;;;;;;;11.00;8.00;;;;;28.47;28.41;100994.75;4899951;29;50722;-69
2022/07/19 04:38:27;;;;;;;;;13.50;9.25;;;;;28.47;28.39;100992.09;4899532;29;45414;-53
2022/07/19 04:40:53;;;;;;;;;10.00;9.50;;;;;28.45;28.75;100988.72;4900635;29;45366;-51
2022/07/19 04:43:18;;;;;;;;;13.00;9.75;;;;;28.45;28.63;100986.03;4900460;29;45260;-56
2022/07/19 04:45:44;;;;;;;;;12.25;10.75;;;;;28.44;28.44;100989.69;4899757;29;45372;-65
2022/07/19 04:48:10;;;;;;;;;10.75;9.50;;;;;28.44;28.39;100984.34;4900006;29;45555;-67
2022/07/19 04:50:35;;;;;;;;;10.50;9.25;;;;;28.43;28.54;100985.31;4899989;29;45391;-66
2022/07/19 04:53:01;;;;;;;;;10.00;10.00;;;;;28.44;28.72;100987.00;4900136;29;45614;-66
2022/07/19 04:55:26;;;;;;;;;9.75;8.75;;;;;28.44;28.34;100987.00;4899247;28;49834;-67
2022/07/19 04:57:52;;;;;;;;;15.00;11.00;;;;;28.44;28.74;100987.00;4882742;29;45294;-66
2022/07/19 05:00:17;;;;;;;;;10.50;9.75;;;;;28.43;28.40;100985.31;4899467;29;45170;-58
2022/07/19 05:02:43;;;;;;;;;11.75;9.25;;;;;28.45;28.72;100986.03;4899874;28;45543;-66
2022/07/19 05:05:09;;;;;;;;;14.50;10.50;;;;;28.44;28.28;100984.34;4899734;29;45223;-66
2022/07/19 05:07:35;;;;;;;;;11.75;11.00;;;;;28.44;28.68;100977.22;4899779;29;45352;-66
2022/07/19 05:10:01;;;;;;;;;9.75;8.50;;;;;28.45;28.19;100978.03;4899619;29;45336;-67
2022/07/19 05:12:26;;;;;;;;;12.00;10.50;;;;;28.45;28.79;100978.88;4900570;29;45417;-68
2022/07/19 05:14:51;;;;;;;;;10.00;10.00;;;;;28.45;28.33;100981.53;4899441;29;46273;-66
2022/07/19 05:17:16;;;;;;;;;10.50;9.25;;;;;28.46;28.67;100982.41;4899573;29;45900;-67
2022/07/19 05:19:42;;;;;;;;;12.50;10.25;;;;;28.46;28.49;100979.72;4899241;29;48970;-62
2022/07/19 05:22:07;;;;;;;;;9.75;9.50;;;;;28.46;28.54;100977.06;4899908;28;45573;-66
2022/07/19 05:24:33;;;;;;;;;9.50;8.00;;;;;28.47;28.73;100976.09;4899371;28;46471;-60
2022/07/19 05:26:58;;;;;;;;;12.25;12.25;;;;;28.46;28.68;100975.22;4899389;29;45412;-65
2022/07/19 05:29:24;;;;;;;;;11.25;10.25;;;;;28.48;29.15;100972.44;4883050;29;45543;-68
2022/07/19 05:31:49;;;;;;;;;6.50;6.50;;;;;28.48;28.56;100977.78;4899496;29;45562;-68
2022/07/19 05:34:15;;;;;;;;;8.75;7.75;;;;;28.47;28.93;100982.25;4899427;29;45423;-68
2022/07/19 05:36:40;;;;;;;;;13.00;9.25;;;;;28.48;28.93;100977.78;4899189;29;45358;-68
2022/07/19 05:39:05;;;;;;;;;12.25;9.00;;;;;28.48;28.96;100975.94;4899279;29;45395;-68
2022/07/19 05:41:31;;;;;;;;;10.25;9.00;;;;;28.50;29.25;100970.47;4899568;29;45410;-67
2022/07/19 05:43:57;;;;;;;;;11.25;9.25;;;;;28.50;28.90;100970.47;4899250;29;45383;-69
2022/07/19 05:46:22;;;;;;;;;10.25;9.75;;;;;28.50;29.19;100975.78;4899438;29;45340;-65
2022/07/19 05:48:48;;;;;;;;;10.25;10.00;;;;;28.50;28.82;100975.78;4899314;29;45392;-69
2022/07/19 05:51:13;;;;;;;;;11.25;9.75;;;;;28.51;29.32;100969.50;4898134;29;45374;-65
2022/07/19 05:53:39;;;;;;;;;9.50;9.50;;;;;28.51;28.91;100966.81;4899084;29;46252;-62
2022/07/19 05:56:05;;;;;;;;;11.00;10.00;;;;;28.51;29.00;100964.16;4898767;29;45258;-68
2022/07/19 05:58:31;;;;;;;;;10.25;8.00;;;;;28.52;28.82;100960.50;4899360;29;45242;-65
2022/07/19 06:03:40;;;;;;;;;10.25;9.50;;;;;28.53;28.97;100959.53;4899050;29;45298;-69
2022/07/19 06:06:05;;;;;;;;;16.25;11.75;;;;;28.54;29.12;100961.22;4898766;29;45401;-66
2022/07/19 06:08:30;;;;;;;;;11.00;10.25;;;;;28.55;29.01;100962.91;4898507;29;45388;-63
2022/07/19 06:10:56;;;;;;;;;12.75;10.75;;;;;28.55;28.90;100962.91;4899326;29;45146;-57
2022/07/19 06:13:22;;;;;;;;;12.25;11.00;;;;;28.56;29.06;100961.94;4900680;29;46154;-58
2022/07/19 06:15:47;;;;;;;;;10.25;10.25;;;;;28.57;28.95;100960.97;4901893;28;45437;-59
2022/07/19 06:18:12;;;;;;;;;9.25;9.25;;;;;28.58;28.88;100961.81;4902171;29;46656;-61
2022/07/19 06:20:38;;;;;;;;;9.75;9.25;;;;;28.57;29.22;100952.97;4902548;29;45535;-67
2022/07/19 06:23:03;;;;;;;;;11.00;11.00;;;;;28.59;29.00;100947.50;4902021;29;46713;-57
2022/07/19 06:25:28;;;;;;;;;12.25;11.00;;;;;28.59;28.89;100951.03;4902120;28;45443;-51
2022/07/19 06:27:54;;;;;;;;;10.25;10.25;;;;;28.61;28.71;100946.38;4902228;28;45345;-61
2022/07/19 06:30:19;;;;;;;;;11.00;10.00;;;;;28.62;29.10;100947.22;4902436;29;45528;-56
2022/07/19 06:32:44;;;;;;;;;15.00;11.00;;;;;28.62;29.06;100934.72;4901720;29;45448;-59
2022/07/19 06:35:10;;;;;;;;;6.25;6.25;;;;;28.63;29.03;100939.09;4900758;29;45641;-59
2022/07/19 06:37:35;;;;;;;;;12.00;10.00;;;;;28.63;28.79;100936.41;4902070;29;45378;-55
2022/07/19 06:40:01;;;;;;;;;10.50;9.00;;;;;28.65;28.96;100929.13;4902297;29;45320;-56
2022/07/19 06:42:26;;;;;;;;;12.75;12.50;;;;;28.66;28.86;100932.66;4902395;29;45360;-62
2022/07/19 06:44:51;;;;;;;;;10.00;10.00;;;;;28.67;29.15;100924.50;4901672;29;45779;-62
2022/07/19 06:47:17;;;;;;;;;11.00;9.50;;;;;28.68;29.25;100925.34;4901805;29;45371;-67
2022/07/19 06:49:42;;;;;;;;;12.25;10.50;;;;;28.69;28.86;100916.34;4901783;29;45350;-59
2022/07/19 06:52:08;;;;;;;;;12.00;10.00;;;;;28.71;28.99;100917.06;4901654;29;45693;-65
2022/07/19 06:54:33;;;;;;;;;11.50;11.00;;;;;28.72;29.00;100920.63;4901725;29;45326;-63
2022/07/19 06:56:59;;;;;;;;;12.50;10.50;;;;;28.74;29.18;100921.31;4901833;29;45237;-64
2022/07/19 06:59:24;;;;;;;;;11.75;11.00;;;;;28.76;28.87;100930.03;4902175;28;45287;-61
2022/07/19 07:01:49;;;;;;;;;12.00;11.00;;;;;28.76;29.17;100924.69;4901258;29;49467;-66
2022/07/19 07:04:15;;;;;;;;;12.00;11.00;;;;;28.77;29.48;100929.03;4901666;29;45296;-71
2022/07/19 07:06:40;;;;;;;;;7.75;6.75;;;;;28.78;28.93;100926.22;4901812;29;45447;-67
2022/07/19 07:09:05;;;;;;;;;12.00;12.00;;;;;28.77;29.01;100926.38;4901609;29;45226;-70
2022/07/19 07:11:31;;;;;;;;;11.25;10.50;;;;;28.78;28.93;100925.41;4901602;29;45373;-70
2022/07/19 07:13:56;;;;;;;;;9.75;9.00;;;;;28.78;28.94;100920.88;4901679;29;45228;-71
2022/07/19 07:16:21;;;;;;;;;11.75;9.75;;;;;28.79;29.17;100921.75;4901728;29;45297;-69
2022/07/19 07:18:47;;;;;;;;;12.75;11.25;;;;;28.79;29.04;100916.41;4901407;29;45439;-61
2022/07/19 07:21:12;;;;;;;;;12.50;12.00;;;;;28.79;29.11;100916.41;4901216;29;47009;-66
2022/07/19 07:23:38;;;;;;;;;12.00;10.25;;;;;28.79;29.06;100917.25;4901012;29;45382;-64
2022/07/19 07:26:03;;;;;;;;;12.50;10.00;;;;;28.80;29.14;100912.78;4900967;29;45587;-69
2022/07/19 07:28:29;;;;;;;;;13.75;11.25;;;;;28.80;29.46;100910.09;4901779;29;45699;-49
2022/07/19 07:30:54;;;;;;;;;11.00;11.00;;;;;28.80;29.35;100907.44;4901228;28;45327;-67
2022/07/19 07:33:19;;;;;;;;;14.00;10.50;;;;;28.80;28.88;100907.44;4901132;29;45369;-70
2022/07/19 07:35:45;;;;;;;;;11.25;10.00;;;;;28.82;29.61;100905.47;4901022;28;45398;-55
2022/07/19 07:38:10;;;;;;;;;14.25;11.00;;;;;28.81;29.12;100907.28;4901384;29;45449;-62
2022/07/19 07:40:36;;;;;;;;;14.25;11.50;;;;;28.77;29.31;100905.91;4900934;29;48923;-55
2022/07/19 07:43:02;;;;;;;;;12.00;12.00;;;;;28.76;29.24;100892.69;4900777;28;45371;-56
2022/07/19 07:45:28;;;;;;;;;16.00;12.75;;;;;28.78;29.18;100902.22;4901308;29;45411;-56
2022/07/19 07:47:53;;;;;;;;;14.75;12.50;;;;;28.79;29.53;100897.75;4900925;28;45379;-55
2022/07/19 07:50:19;;;;;;;;;13.75;11.25;;;;;28.80;29.86;100888.78;4900749;29;45246;-56
2022/07/19 07:52:44;;;;;;;;;11.75;11.50;;;;;28.81;29.80;100890.47;4900379;29;45339;-55
2022/07/19 07:55:10;;;;;;;;;14.00;13.00;;;;;28.84;29.81;100888.34;4900895;29;45271;-56
2022/07/19 07:57:35;;;;;;;;;13.75;12.00;;;;;28.85;29.88;100883.84;4900864;28;45216;-55
2022/07/19 08:00:00;;;;;;;;;15.00;11.50;;;;;28.88;29.72;100888.06;4900410;29;46296;-55
2022/07/19 08:02:25;;;;;;;;;16.00;13.50;;;;;28.90;29.54;100881.63;4900818;29;45392;-55
2022/07/19 08:04:51;;;;;;;;;13.00;10.75;;;;;28.91;30.08;100880.63;4900552;29;45356;-56
2022/07/19 08:07:16;;;;;;;;;10.50;10.50;;;;;28.92;29.46;100885.00;4900855;29;45455;-54
2022/07/19 08:09:42;;;;;;;;;15.00;12.00;;;;;28.93;29.38;100873.34;4900318;28;45511;-56
2022/07/19 08:12:07;;;;;;;;;12.25;11.50;;;;;28.93;29.58;100870.66;4899285;28;53065;-55
2022/07/19 08:14:32;;;;;;;;;12.75;12.25;;;;;28.95;29.08;100862.50;4899462;29;45561;-55
2022/07/19 08:16:58;;;;;;;;;11.50;11.25;;;;;28.95;29.36;100871.34;4900747;29;45297;-56
2022/07/19 08:19:24;;;;;;;;;13.50;11.75;;;;;28.95;29.63;100863.34;4900308;29;46171;-56
2022/07/19 08:21:49;;;;;;;;;15.50;13.00;;;;;28.95;29.58;100866.00;4882921;29;45889;-55
2022/07/19 08:24:14;;;;;;;;;11.75;10.75;;;;;28.96;29.38;100865.03;4883511;29;46239;-56
2022/07/19 08:26:39;;;;;;;;;14.50;12.75;;;;;28.99;29.50;100856.75;4900432;28;45534;-55
2022/07/19 08:29:05;;;;;;;;;12.75;12.50;;;;;29.00;28.79;100862.91;4899954;29;45426;-55
2022/07/19 08:31:30;;;;;;;;;14.50;12.00;;;;;29.02;28.87;100860.97;4899318;29;45618;-56
2022/07/19 08:33:56;;;;;;;;;11.75;8.25;;;;;29.02;29.26;100855.63;4900397;29;45417;-58
2022/07/19 14:48:12;;;;;;;;;20.25;17.25;;;;;30.63;26.72;100491.91;5303656;23;46703;-60
2022/07/19 14:50:37;;;;;;;;;16.50;16.00;;;;;30.62;26.69;100495.59;4902359;29;45440;-58
2022/07/19 14:53:03;;;;;;;;;16.00;16.00;;;;;30.61;26.60;100502.78;4901646;29;46247;-59
2022/07/19 14:55:28;;;;;;;;;18.00;16.00;;;;;30.60;26.67;100497.59;4901870;29;45351;-58
2022/07/19 14:57:54;;;;;;;;;20.75;15.00;;;;;30.58;26.35;100491.56;4901538;29;45331;-57
2022/07/19 15:00:19;;;;;;;;;16.75;14.25;;;;;30.56;26.39;100498.91;4902057;29;45254;-57
2022/07/19 15:02:44;;;;;;;;;18.00;14.50;;;;;30.53;26.79;100492.88;4901302;29;45418;-54
2022/07/19 15:05:10;;;;;;;;;17.50;16.00;;;;;30.49;26.48;100494.16;4901967;29;45340;-55
2022/07/19 15:07:35;;;;;;;;;15.75;14.50;;;;;30.51;26.77;100488.66;4901777;28;45812;-59
2022/07/19 15:10:01;;;;;;;;;16.00;14.75;;;;;30.49;26.52;100479.97;4901666;29;45448;-56
2022/07/19 15:12:26;;;;;;;;;15.50;15.00;;;;;30.46;26.54;100481.13;4900275;29;46171;-56
2022/07/19 15:14:52;;;;;;;;;14.75;14.75;;;;;30.45;26.65;100481.28;4901320;29;45357;-59
2022/07/19 15:17:17;;;;;;;;;14.75;14.50;;;;;30.45;26.59;100486.63;4900395;29;45415;-58
2022/07/19 15:19:42;;;;;;;;;17.00;15.00;;;;;30.43;26.56;100478.75;4901545;29;45522;-55
2022/07/19 15:22:08;;;;;;;;;18.75;14.00;;;;;30.42;27.14;100477.09;4900389;29;46032;-58
2022/07/19 15:24:34;;;;;;;;;14.25;14.00;;;;;30.41;26.74;100486.09;4901339;29;45205;-58
2022/07/19 15:26:59;;;;;;;;;13.00;13.00;;;;;30.41;26.65;100480.75;4901207;29;45397;-57
2022/07/19 15:29:24;;;;;;;;;14.25;13.25;;;;;30.39;27.44;100485.41;4901453;29;45230;-59
2022/07/19 15:31:50;;;;;;;;;14.00;13.00;;;;;30.39;27.39;100482.75;4900863;28;45944;-57
2022/07/19 15:34:15;;;;;;;;;14.00;14.00;;;;;30.38;27.05;100483.75;4901288;29;45226;-58
2022/07/19 15:36:41;;;;;;;;;14.50;14.50;;;;;30.37;26.88;100471.41;4901554;29;45744;-55
2022/07/19 15:39:07;;;;;;;;;15.00;13.75;;;;;30.35;27.30;100473.38;4901541;28;45424;-59
2022/07/19 15:41:33;;;;;;;;;16.25;14.25;;;;;30.35;27.37;100460.03;4901027;28;46882;-59
2022/07/19 15:44:00;;;;;;;;;14.25;13.25;;;;;30.32;27.40;100463.81;4900634;29;45475;-53
2022/07/19 15:46:28;;;;;;;;;13.25;13.00;;;;;30.33;27.20;100470.03;4901317;28;46029;-58
2022/07/19 15:48:55;;;;;;;;;17.00;14.50;;;;;30.31;27.05;100470.19;4900878;28;45626;-57
2022/07/19 15:51:20;;;;;;;;;15.00;14.00;;;;;30.33;27.29;100470.03;4900983;29;45283;-55
2022/07/19 15:53:46;;;;;;;;;15.50;13.25;;;;;30.32;27.15;100465.69;4900792;28;45350;-57
2022/07/19 15:56:11;;;;;;;;;14.00;12.00;;;;;30.27;27.76;100458.13;4901504;29;45360;-57
2022/07/19 15:58:36;;;;;;;;;13.00;12.75;;;;;30.30;27.54;100465.00;4901247;29;45505;-59
2022/07/19 16:01:02;;;;;;;;;16.00;14.25;;;;;30.30;27.37;100465.00;4900596;28;46758;-58
2022/07/19 16:03:27;;;;;;;;;16.00;13.00;;;;;30.29;27.36;100460.63;4900798;29;45426;-57
2022/07/19 16:05:53;;;;;;;;;15.25;13.75;;;;;30.28;27.89;100459.81;4900719;29;45362;-58
2022/07/19 16:08:18;;;;;;;;;14.00;13.00;;;;;30.28;27.86;100467.84;4901092;29;45542;-59
2022/07/19 16:10:43;;;;;;;;;14.50;13.00;;;;;30.27;27.61;100473.31;4900434;28;46611;-57
2022/07/19 16:13:09;;;;;;;;;13.50;13.25;;;;;30.27;27.42;100468.81;4901126;29;45378;-59
2022/07/19 16:15:34;;;;;;;;;12.00;12.00;;;;;30.27;27.60;100473.31;4900814;29;45620;-59
2022/07/19 16:18:01;;;;;;;;;15.25;13.00;;;;;30.28;27.57;100475.00;4900611;28;45542;-58
2022/07/19 16:20:26;;;;;;;;;13.25;13.25;;;;;30.27;27.46;100484.00;4900524;28;47789;-56
2022/07/19 16:22:52;;;;;;;;;13.50;12.25;;;;;30.26;27.37;100477.00;4900328;29;45278;-59
2022/07/19 16:25:17;;;;;;;;;15.00;13.50;;;;;30.25;28.07;100483.34;4900556;28;45376;-56
2022/07/19 16:27:43;;;;;;;;;12.00;11.00;;;;;30.25;27.26;100480.69;4900586;29;45502;-58
2022/07/19 16:30:09;;;;;;;;;9.00;9.00;;;;;30.25;27.36;100486.03;4900711;28;46348;-52
2022/07/19 16:32:34;;;;;;;;;15.00;12.50;;;;;30.23;27.33;100484.34;4900440;29;45416;-55
2022/07/19 16:35:02;;;;;;;;;13.50;13.50;;;;;30.23;27.59;100484.34;4900334;28;45148;-57
2022/07/19 16:37:27;;;;;;;;;11.75;11.50;;;;;30.21;27.77;100485.47;4899233;29;45386;-56
2022/07/19 16:39:53;;;;;;;;;13.75;12.75;;;;;30.23;27.76;100480.81;4900024;28;45469;-55
2022/07/19 16:42:18;;;;;;;;;13.75;12.25;;;;;30.19;28.07;100482.97;4900280;29;45331;-57
2022/07/19 16:44:43;;;;;;;;;5.75;5.75;;;;;30.22;27.39;100484.50;4900081;28;45381;-57
2022/07/19 16:47:09;;;;;;;;;12.00;11.75;;;;;30.22;27.57;100489.84;4899415;28;45601;-58
2022/07/19 16:49:37;;;;;;;;;11.00;11.00;;;;;30.20;27.55;100495.34;4900276;29;45574;-61
2022/07/19 16:52:04;;;;;;;;;11.50;11.25;;;;;30.21;27.50;100491.69;4899903;28;45830;-55
2022/07/19 16:54:31;;;;;;;;;11.75;11.00;;;;;30.20;27.38;100494.53;4900098;28;45337;-54
2022/07/19 16:56:57;;;;;;;;;12.50;12.50;;;;;30.20;27.78;100490.00;4899550;29;45568;-58
2022/07/19 16:59:22;;;;;;;;;13.75;13.00;;;;;30.19;27.38;100501.69;4899942;29;46300;-56
2022/07/19 17:01:47;;;;;;;;;11.75;11.75;;;;;30.19;27.61;100506.22;4899952;28;45354;-56
2022/07/19 17:04:13;;;;;;;;;12.50;12.00;;;;;30.19;27.54;100515.06;4900236;28;45520;-57
2022/07/19 17:06:38;;;;;;;;;12.25;12.25;;;;;30.18;27.43;100521.38;4899050;29;45347;-57
2022/07/19 17:09:05;;;;;;;;;14.50;13.00;;;;;30.18;27.97;100518.72;4899567;29;45330;-57
2022/07/19 17:11:31;;;;;;;;;11.75;11.75;;;;;30.18;27.58;100520.56;4899503;29;45725;-57
2022/07/19 17:13:56;;;;;;;;;13.25;13.25;;;;;30.17;27.49;100527.72;4899832;28;46005;-57
2022/07/19 17:16:22;;;;;;;;;11.50;11.50;;;;;30.18;27.95;100541.94;4899454;29;45482;-50
2022/07/19 17:18:47;;;;;;;;;12.00;12.00;;;;;30.19;28.55;100544.44;4899212;28;46194;-56
2022/07/19 17:21:13;;;;;;;;;14.00;12.75;;;;;30.18;28.39;100542.78;4899695;29;45297;-56
2022/07/19 17:23:38;;;;;;;;;13.00;12.00;;;;;30.18;28.21;100544.63;4898817;29;45297;-57